createdAt,value
2022-12-29T00:01:37.895Z,4.5
2022-12-29T00:03:42.096Z,3.9
2022-12-29T00:05:46.003Z,3.1
2022-12-29T00:07:50.075Z,3.5
2022-12-29T00:09:54.094Z,3.4
2022-12-29T00:11:58.152Z,3.3
2022-12-29T00:14:05.244Z,2.4
2022-12-29T00:16:09.313Z,2.3
2022-12-29T00:22:35.571Z,2.6
2022-12-29T00:24:39.637Z,2.5
2022-12-29T00:26:46.681Z,2.8
2022-12-29T00:28:50.709Z,2.8
2022-12-29T00:30:54.808Z,1.8
2022-12-29T00:32:58.842Z,2.1
2022-12-29T00:35:02.925Z,2.5
2022-12-29T00:37:06.949Z,3.5
2022-12-29T00:41:18.061Z,1.4
2022-12-29T00:45:26.166Z,1.2
2022-12-29T00:47:30.264Z,1.6
2022-12-29T00:49:34.457Z,1
2022-12-29T00:53:42.409Z,0.8
2022-12-29T00:55:49.471Z,1.4
2022-12-29T00:59:59.179Z,0.9
2022-12-29T01:02:03.365Z,1.1
2022-12-29T01:04:07.279Z,1.1
2022-12-29T01:06:11.301Z,0.4
2022-12-29T01:08:15.375Z,1.5
2022-12-29T01:10:22.438Z,1.3
2022-12-29T01:14:30.549Z,1.1
2022-12-29T01:21:46.246Z,0.4
2022-12-29T01:25:57.369Z,1.4
2022-12-29T01:28:01.454Z,0.6
2022-12-29T01:32:09.545Z,1.2
2022-12-29T01:34:13.627Z,0.3
2022-12-29T01:36:17.685Z,1
2022-12-29T01:38:24.792Z,0.3
2022-12-29T01:40:28.815Z,0.4
2022-12-29T01:42:32.874Z,0.6
2022-12-29T01:44:36.917Z,0.6
2022-12-29T01:46:40.993Z,0.4
2022-12-29T01:50:49.103Z,0.3
2022-12-29T01:52:56.176Z,0.8
2022-12-29T01:55:00.243Z,0.6
2022-12-29T01:57:04.309Z,0.6
2022-12-29T01:59:08.351Z,0.8
2022-12-29T02:01:12.467Z,0.9
2022-12-29T02:03:16.563Z,0.9
2022-12-29T02:05:20.520Z,0.9
2022-12-29T02:07:27.562Z,1.9
2022-12-29T02:09:31.619Z,2
2022-12-29T02:11:35.712Z,2.9
2022-12-29T02:12:39.298Z,2.9
2022-12-29T02:14:43.281Z,2.6
2022-12-29T02:16:47.471Z,4
2022-12-29T02:18:51.372Z,4.4
2022-12-29T02:20:58.440Z,6.5
2022-12-29T02:23:02.491Z,8.9
2022-12-29T02:25:06.564Z,10.5
2022-12-29T02:27:10.637Z,12
2022-12-29T02:31:18.742Z,11.7
2022-12-29T02:33:22.727Z,11.5
2022-12-29T02:37:33.825Z,12.8
2022-12-29T02:39:37.883Z,13.8
2022-12-29T02:41:41.926Z,14.7
2022-12-29T02:43:45.958Z,15.7
2022-12-29T02:45:50.050Z,12.2
2022-12-29T02:50:01.150Z,10.3
2022-12-29T02:52:05.167Z,9.2
2022-12-29T02:54:09.210Z,8.9
2022-12-29T02:56:13.280Z,9.4
2022-12-29T02:58:17.296Z,6.7
2022-12-29T03:00:21.335Z,6.1
2022-12-29T03:02:25.551Z,4.7
2022-12-29T03:04:32.453Z,4
2022-12-29T03:08:40.555Z,2.1
2022-12-29T03:11:48.115Z,0.9
2022-12-29T03:13:52.166Z,0.5
2022-12-29T03:15:56.222Z,0.4
2022-12-29T03:26:19.534Z,0.2
2022-12-29T03:28:23.552Z,0.2
2022-12-29T03:30:27.662Z,1.3
2022-12-29T03:32:34.698Z,0.1
2022-12-29T03:34:38.692Z,0.5
2022-12-29T03:44:58.986Z,0.5
2022-12-29T03:49:10.103Z,0.5
2022-12-29T03:55:22.211Z,1.1
2022-12-29T03:57:26.284Z,0.6
2022-12-29T03:59:30.343Z,0.7
2022-12-29T04:03:41.570Z,0.6
2022-12-29T04:10:07.933Z,0.4
2022-12-29T04:14:19.040Z,0.2
2022-12-29T04:16:23.094Z,0.7
2022-12-29T04:18:27.143Z,0.2
2022-12-29T04:32:58.484Z,0.8
2022-12-29T04:35:02.751Z,0
2022-12-29T04:41:14.640Z,0.3
2022-12-29T04:45:25.753Z,0.2
2022-12-29T04:47:29.796Z,0.5
2022-12-29T04:49:33.839Z,0.3
2022-12-29T04:51:37.884Z,0.9
2022-12-29T04:55:46.000Z,0.1
2022-12-29T04:57:53.051Z,0.2
2022-12-29T04:59:57.123Z,0.1
2022-12-29T05:02:01.247Z,0.1
2022-12-29T05:05:08.734Z,0.2
2022-12-29T05:07:12.777Z,0.9
2022-12-29T05:09:16.829Z,0.9
2022-12-29T05:11:23.864Z,0.1
2022-12-29T05:13:27.911Z,0.1
2022-12-29T05:17:36.009Z,0.5
2022-12-29T05:19:40.046Z,1.3
2022-12-29T05:21:44.105Z,0.1
2022-12-29T05:23:48.175Z,0.5
2022-12-29T05:25:55.207Z,0.2
2022-12-29T05:27:59.269Z,0.9
2022-12-29T05:30:03.295Z,0.6
2022-12-29T05:32:07.419Z,0.2
2022-12-29T05:36:15.475Z,0
2022-12-29T05:38:19.472Z,0.9
2022-12-29T05:40:26.537Z,0.7
2022-12-29T05:42:30.606Z,0.3
2022-12-29T05:44:34.632Z,0.2
2022-12-29T05:46:38.752Z,0
2022-12-29T05:48:42.731Z,0.3
2022-12-29T05:50:46.772Z,0.4
2022-12-29T05:52:50.819Z,0
2022-12-29T05:54:57.877Z,0.5
2022-12-29T05:57:01.906Z,0.3
2022-12-29T05:59:05.984Z,0.5
2022-12-29T06:00:09.491Z,0.1
2022-12-29T06:08:28.665Z,0.2
2022-12-29T06:10:32.739Z,0.3
2022-12-29T06:12:36.783Z,0.1
2022-12-29T06:14:40.829Z,0.1
2022-12-29T06:16:44.924Z,0.3
2022-12-29T06:18:48.906Z,0.4
2022-12-29T06:20:52.968Z,1
2022-12-29T06:25:05.352Z,0.2
2022-12-29T06:27:08.107Z,0.5
2022-12-29T06:29:12.148Z,0.5
2022-12-29T06:31:16.209Z,0.2
2022-12-29T06:39:35.344Z,0.1
2022-12-29T06:43:43.369Z,0.3
2022-12-29T06:49:55.482Z,0
2022-12-29T06:52:05.077Z,2.2
2022-12-29T06:57:15.723Z,0.7
2022-12-29T06:59:19.673Z,0.3
2022-12-29T07:01:23.838Z,1
2022-12-29T07:03:27.849Z,0.9
2022-12-29T07:05:34.766Z,0.2
2022-12-29T07:07:38.762Z,1
2022-12-29T07:09:42.873Z,0.6
2022-12-29T07:11:46.790Z,0.6
2022-12-29T07:13:50.821Z,1
2022-12-29T07:15:54.823Z,0.8
2022-12-29T07:17:58.843Z,0.8
2022-12-29T07:20:05.892Z,1.8
2022-12-29T07:22:09.862Z,0.8
2022-12-29T07:24:13.904Z,0.7
2022-12-29T07:26:17.931Z,0.6
2022-12-29T07:28:21.919Z,0.5
2022-12-29T07:30:25.929Z,1.9
2022-12-29T07:32:29.956Z,0.4
2022-12-29T07:34:36.981Z,0.1
2022-12-29T07:36:41.003Z,0.1
2022-12-29T07:38:45.009Z,0.9
2022-12-29T07:40:49.023Z,0.4
2022-12-29T07:42:53.070Z,0.4
2022-12-29T07:44:57.079Z,1
2022-12-29T07:47:01.155Z,0.6
2022-12-29T07:49:08.138Z,2
2022-12-29T07:51:12.096Z,0.7
2022-12-29T07:55:34.461Z,0.1
2022-12-29T07:57:38.474Z,0.3
2022-12-29T07:59:42.452Z,1
2022-12-29T08:01:49.728Z,1.7
2022-12-29T08:03:57.312Z,0.1
2022-12-29T08:05:57.505Z,0.1
2022-12-29T08:10:05.513Z,0
2022-12-29T08:12:09.512Z,0.2
2022-12-29T08:14:13.473Z,0.3
2022-12-29T08:16:20.511Z,0.2
2022-12-29T08:18:24.471Z,0.2
2022-12-29T08:22:32.452Z,0.3
2022-12-29T08:24:36.448Z,0.3
2022-12-29T08:26:40.455Z,0.7
2022-12-29T08:28:44.436Z,0.4
2022-12-29T08:30:51.472Z,0.7
2022-12-29T08:39:07.391Z,1
2022-12-29T08:41:11.403Z,0.3
2022-12-29T08:43:18.546Z,0.8
2022-12-29T08:49:30.397Z,0.7
2022-12-29T08:50:33.875Z,0.1
2022-12-29T08:52:37.902Z,0.2
2022-12-29T08:54:41.922Z,0.2
2022-12-29T08:56:45.920Z,0.6
2022-12-29T08:58:52.927Z,0.2
2022-12-29T09:03:01.137Z,1
2022-12-29T09:05:04.983Z,0.3
2022-12-29T09:07:08.940Z,1
2022-12-29T09:09:12.949Z,0.1
2022-12-29T09:11:16.969Z,0.2
2022-12-29T09:13:23.963Z,0.2
2022-12-29T09:15:27.986Z,2.3
2022-12-29T09:17:32.024Z,2.5
2022-12-29T09:19:36.732Z,0.6
2022-12-29T09:21:40.025Z,0.4
2022-12-29T09:23:44.052Z,0.5
2022-12-29T09:25:48.067Z,0
2022-12-29T09:27:55.113Z,0.7
2022-12-29T09:29:59.130Z,0.2
2022-12-29T09:32:05.756Z,0.9
2022-12-29T09:44:30.236Z,0.4
2022-12-29T09:47:37.759Z,0.6
2022-12-29T09:49:41.779Z,1.3
2022-12-29T09:51:45.850Z,0.6
2022-12-29T09:53:49.846Z,0.1
2022-12-29T09:55:56.893Z,0.2
2022-12-29T09:58:00.932Z,0.1
2022-12-29T10:08:21.036Z,0.4
2022-12-29T10:12:32.082Z,0.5
2022-12-29T10:14:36.114Z,0
2022-12-29T10:16:40.178Z,1.1
2022-12-29T10:18:44.145Z,0.6
2022-12-29T10:20:48.160Z,0
2022-12-29T10:22:52.182Z,1.1
2022-12-29T10:24:59.198Z,0.4
2022-12-29T10:27:03.225Z,1.3
2022-12-29T10:29:07.258Z,0.1
2022-12-29T10:31:11.380Z,0.3
2022-12-29T10:33:15.282Z,0.2
2022-12-29T10:37:27.484Z,1.5
2022-12-29T10:39:30.313Z,1
2022-12-29T10:41:34.335Z,0.2
2022-12-29T10:44:41.876Z,0.4
2022-12-29T10:46:45.900Z,0.3
2022-12-29T10:48:50.011Z,0.3
2022-12-29T10:50:59.978Z,0.5
2022-12-29T10:53:00.941Z,0.7
2022-12-29T10:55:05.020Z,0.2
2022-12-29T10:57:08.982Z,0.1
2022-12-29T10:59:13.001Z,0.8
2022-12-29T11:01:17.092Z,0.4
2022-12-29T11:03:21.071Z,1.4
2022-12-29T11:05:25.051Z,0.9
2022-12-29T11:07:32.060Z,0.2
2022-12-29T11:09:42.702Z,0.6
2022-12-29T11:11:40.084Z,0.9
2022-12-29T11:13:44.089Z,3.1
2022-12-29T11:15:48.132Z,1
2022-12-29T11:17:52.160Z,1.4
2022-12-29T11:19:56.153Z,1.3
2022-12-29T11:22:03.171Z,0.6
2022-12-29T11:24:07.204Z,0.8
2022-12-29T11:26:11.220Z,0.6
2022-12-29T11:34:27.290Z,1.2
2022-12-29T11:36:34.323Z,0.6
2022-12-29T11:38:38.329Z,0.1
2022-12-29T11:40:42.337Z,1
2022-12-29T11:43:00.421Z,1.2
2022-12-29T11:45:10.494Z,2.3
2022-12-29T11:47:08.446Z,0.7
2022-12-29T11:49:15.486Z,1.3
2022-12-29T11:51:24.947Z,1.3
2022-12-29T11:53:23.529Z,0.9
2022-12-29T11:55:27.560Z,0.6
2022-12-29T11:57:31.566Z,1.1
2022-12-29T11:59:35.575Z,1.2
2022-12-29T12:01:39.695Z,0.7
2022-12-29T12:03:46.861Z,1.4
2022-12-29T12:05:50.641Z,0.6
2022-12-29T12:10:04.816Z,0.9
2022-12-29T12:12:02.695Z,2
2022-12-29T12:14:06.734Z,1.5
2022-12-29T12:16:10.873Z,1.7
2022-12-29T12:18:17.792Z,0.8
2022-12-29T12:20:21.799Z,2
2022-12-29T12:22:25.822Z,0.7
2022-12-29T12:24:29.839Z,1
2022-12-29T12:26:33.855Z,0.8
2022-12-29T12:28:37.924Z,0.8
2022-12-29T12:30:42.047Z,1.8
2022-12-29T12:32:48.924Z,0.2
2022-12-29T12:34:52.946Z,0.7
2022-12-29T12:36:56.937Z,1.9
2022-12-29T12:42:08.509Z,0.7
2022-12-29T12:44:12.517Z,0.9
2022-12-29T12:46:19.604Z,0.7
2022-12-29T12:48:23.584Z,1
2022-12-29T12:52:31.624Z,0.5
2022-12-29T12:54:37.222Z,1.1
2022-12-29T12:56:41.191Z,0.6
2022-12-29T12:58:45.222Z,0.6
2022-12-29T13:00:52.216Z,0.3
2022-12-29T13:05:00.293Z,0.9
2022-12-29T13:07:04.298Z,1
2022-12-29T13:09:08.296Z,1.7
2022-12-29T13:11:12.343Z,1.8
2022-12-29T13:13:16.412Z,0.7
2022-12-29T13:15:23.390Z,1.1
2022-12-29T13:17:27.502Z,0.8
2022-12-29T13:25:43.555Z,1.1
2022-12-29T13:29:54.605Z,0.6
2022-12-29T13:34:02.658Z,1.4
2022-12-29T13:35:06.175Z,1.7
2022-12-29T13:39:20.558Z,0.7
2022-12-29T13:41:18.295Z,1.5
2022-12-29T13:47:33.378Z,0.8
2022-12-29T13:49:37.415Z,1.2
2022-12-29T13:51:41.450Z,1.8
2022-12-29T13:53:45.457Z,1.4
2022-12-29T13:55:49.506Z,1.1
2022-12-29T13:57:56.546Z,2.6
2022-12-29T14:00:00.595Z,3.1
2022-12-29T14:02:04.745Z,0.7
2022-12-29T14:04:08.712Z,1.2
2022-12-29T14:06:12.679Z,1.7
2022-12-29T14:08:16.723Z,1.3
2022-12-29T14:12:27.786Z,1.9
2022-12-29T14:14:31.813Z,2.5
2022-12-29T14:16:35.905Z,2.5
2022-12-29T14:18:39.892Z,1
2022-12-29T14:20:43.927Z,2.1
2022-12-29T14:22:47.938Z,0.8
2022-12-29T14:29:05.137Z,1.5
2022-12-29T14:31:07.056Z,0.9
2022-12-29T14:32:10.549Z,0.9
2022-12-29T14:34:14.605Z,1.9
2022-12-29T14:36:18.614Z,1.3
2022-12-29T14:38:22.628Z,1.2
2022-12-29T14:42:33.665Z,1.1
2022-12-29T14:44:37.708Z,2.3
2022-12-29T14:46:44.459Z,1.2
2022-12-29T14:48:45.716Z,1.7
2022-12-29T14:50:49.755Z,1
2022-12-29T14:53:00.036Z,0.3
2022-12-29T14:55:00.774Z,0.1
2022-12-29T14:57:04.771Z,1
2022-12-29T14:59:08.784Z,1.1
2022-12-29T15:01:12.861Z,0.2
2022-12-29T15:03:16.925Z,0.7
2022-12-29T15:05:20.863Z,0.3
2022-12-29T15:07:24.861Z,0.4
2022-12-29T15:09:31.863Z,0.4
2022-12-29T15:11:35.879Z,0.4
2022-12-29T15:13:39.891Z,0.4
2022-12-29T15:15:43.884Z,0.3
2022-12-29T15:17:47.861Z,0.3
2022-12-29T15:19:51.866Z,0.6
2022-12-29T15:21:55.871Z,0
2022-12-29T15:24:02.875Z,1.7
2022-12-29T15:30:33.289Z,0.8
2022-12-29T15:36:48.199Z,0.1
2022-12-29T15:38:52.189Z,0.7
2022-12-29T15:40:56.183Z,0.8
2022-12-29T15:43:00.215Z,1.4
2022-12-29T15:45:10.732Z,0.2
2022-12-29T15:47:08.119Z,13.3
2022-12-29T15:49:12.110Z,18.1
2022-12-29T15:51:19.124Z,21.9
2022-12-29T15:53:23.109Z,24.9
2022-12-29T15:55:27.100Z,23.3
2022-12-29T15:57:31.070Z,22.2
2022-12-29T15:59:35.077Z,21.3
2022-12-29T16:01:39.321Z,18.2
2022-12-29T16:05:50.039Z,11.6
2022-12-29T16:07:54.068Z,11.6
2022-12-29T16:09:58.055Z,9.3
2022-12-29T16:14:06.034Z,6.7
2022-12-29T16:16:10.034Z,6.6
2022-12-29T16:18:14.057Z,4.9
2022-12-29T16:22:25.082Z,4.1
2022-12-29T16:24:29.043Z,4.3
2022-12-29T16:25:32.615Z,4.6
2022-12-29T16:27:36.588Z,4.1
2022-12-29T16:29:40.635Z,3.4
2022-12-29T16:31:44.598Z,2.8
2022-12-29T16:33:51.641Z,2.2
2022-12-29T16:35:55.630Z,1.8
2022-12-29T16:37:59.653Z,2.2
2022-12-29T16:40:03.664Z,2.2
2022-12-29T16:46:15.719Z,1.5
2022-12-29T16:48:22.742Z,0.8
2022-12-29T16:50:28.810Z,1
2022-12-29T16:52:30.762Z,1.1
2022-12-29T16:54:34.775Z,1.2
2022-12-29T16:56:38.790Z,1.1
2022-12-29T16:58:46.453Z,1.1
2022-12-29T17:00:46.806Z,0.8
2022-12-29T17:02:53.920Z,1
2022-12-29T17:09:05.860Z,1.4
2022-12-29T17:11:09.876Z,0.5
2022-12-29T17:15:17.906Z,0.6
2022-12-29T17:17:24.935Z,1.8
2022-12-29T17:19:28.928Z,1.3
2022-12-29T17:21:32.967Z,0.6
2022-12-29T17:22:36.475Z,1.1
2022-12-29T17:24:40.504Z,0.1
2022-12-29T17:26:44.511Z,0.7
2022-12-29T17:28:48.523Z,0.8
2022-12-29T17:30:55.599Z,0.3
2022-12-29T17:35:03.577Z,0.5
2022-12-29T17:37:07.556Z,1.2
2022-12-29T17:41:15.581Z,0.7
2022-12-29T17:45:26.608Z,0.8
2022-12-29T17:47:30.594Z,0.8
2022-12-29T17:49:34.613Z,0.5
2022-12-29T17:51:38.633Z,0
2022-12-29T17:53:42.633Z,0.9
2022-12-29T17:55:46.611Z,0.4
2022-12-29T17:59:57.735Z,1.3
2022-12-29T18:02:01.847Z,0.4
2022-12-29T18:04:05.701Z,0.1
2022-12-29T18:06:09.641Z,0.2
2022-12-29T18:08:13.610Z,1.8
2022-12-29T18:10:17.638Z,0.1
2022-12-29T18:12:21.623Z,0
2022-12-29T18:14:28.609Z,1
2022-12-29T18:16:32.632Z,0.3
2022-12-29T18:18:36.589Z,1
2022-12-29T18:19:40.103Z,0.1
2022-12-29T18:21:44.086Z,1.8
2022-12-29T18:27:59.044Z,0.7
2022-12-29T18:30:03.071Z,1.5
2022-12-29T18:32:07.035Z,1.7
2022-12-29T18:34:11.009Z,1
2022-12-29T18:36:15.005Z,0.1
2022-12-29T18:38:19.004Z,2.1
2022-12-29T18:40:22.997Z,0.4
2022-12-29T18:42:29.991Z,2.1
2022-12-29T18:44:33.973Z,0.5
2022-12-29T18:46:38.013Z,1
2022-12-29T18:50:45.963Z,0.4
2022-12-29T18:54:55.455Z,0.8
2022-12-29T18:57:02.469Z,0.7
2022-12-29T18:59:06.463Z,0.2
2022-12-29T19:01:10.551Z,0.8
2022-12-29T19:03:14.460Z,0.4
2022-12-29T19:05:18.417Z,0.8
2022-12-29T19:07:22.431Z,0.6
2022-12-29T19:09:26.404Z,0.3
2022-12-29T19:11:33.378Z,0.4
2022-12-29T19:13:37.378Z,0.3
2022-12-29T19:15:41.407Z,0.4
2022-12-29T19:20:07.704Z,0.3
2022-12-29T19:26:22.682Z,0.4
2022-12-29T19:30:30.634Z,1.3
2022-12-29T19:32:34.626Z,0.7
2022-12-29T19:36:42.622Z,2.8
2022-12-29T19:38:49.577Z,0.7
2022-12-29T19:40:53.546Z,0.5
2022-12-29T19:42:57.562Z,1.4
2022-12-29T19:45:01.519Z,0.8
2022-12-29T19:47:05.603Z,0.5
2022-12-29T19:49:09.463Z,0.4
2022-12-29T19:51:13.459Z,1.2
2022-12-29T19:53:20.477Z,0.7
2022-12-29T19:55:24.451Z,0.9
2022-12-29T19:57:28.412Z,2
2022-12-29T19:59:32.383Z,2.3
2022-12-29T20:01:36.503Z,1.6
2022-12-29T20:05:44.338Z,0.3
2022-12-29T20:09:55.336Z,0.7
2022-12-29T20:11:59.362Z,0.3
2022-12-29T20:13:02.870Z,1.2
2022-12-29T20:15:06.835Z,0.4
2022-12-29T20:17:11.961Z,0.1
2022-12-29T20:21:21.735Z,0.2
2022-12-29T20:23:25.729Z,0.7
2022-12-29T20:27:33.654Z,1.5
2022-12-29T20:29:37.628Z,2.5
2022-12-29T20:31:41.760Z,0.8
2022-12-29T20:33:45.548Z,0.7
2022-12-29T20:35:52.554Z,1.1
2022-12-29T20:37:56.528Z,0.3
2022-12-29T20:40:00.503Z,1.2
2022-12-29T20:42:04.452Z,1.6
2022-12-29T20:44:08.447Z,2.6
2022-12-29T20:46:12.466Z,0.9
2022-12-29T20:48:16.402Z,1.8
2022-12-29T20:50:23.354Z,3.6
2022-12-29T20:56:35.262Z,1.1
2022-12-29T21:00:43.173Z,0.6
2022-12-29T21:05:22.620Z,1.3
2022-12-29T21:06:58.086Z,0.9
2022-12-29T21:09:02.053Z,0.8
2022-12-29T21:10:05.520Z,1.3
2022-12-29T21:12:09.510Z,1.7
2022-12-29T21:14:13.473Z,1.5
2022-12-29T21:16:17.444Z,1.2
2022-12-29T21:18:24.405Z,1.4
2022-12-29T21:20:28.367Z,0.8
2022-12-29T21:22:32.339Z,0.3
2022-12-29T21:24:36.301Z,1.9
2022-12-29T21:26:40.261Z,0.7
2022-12-29T21:28:44.232Z,1.5
2022-12-29T21:30:48.266Z,1.4
2022-12-29T21:37:03.120Z,2.7
2022-12-29T21:43:15.026Z,1.2
2022-12-29T21:47:26.020Z,2
2022-12-29T21:49:29.981Z,0.4
2022-12-29T21:51:33.943Z,0.9
2022-12-29T21:53:38.112Z,1.9
2022-12-29T21:57:45.872Z,1.5
2022-12-29T21:59:49.819Z,1.9
2022-12-29T22:01:56.951Z,1.1
2022-12-29T22:04:00.863Z,0.4
2022-12-29T22:06:04.775Z,1.2
2022-12-29T22:07:08.252Z,0.3
2022-12-29T22:09:12.207Z,2.5
2022-12-29T22:11:16.208Z,0.9
2022-12-29T22:13:20.165Z,0.5
2022-12-29T22:15:27.215Z,0.9
2022-12-29T22:17:35.176Z,0.8
2022-12-29T22:19:35.071Z,3.3
2022-12-29T22:21:39.063Z,0.6
2022-12-29T22:23:43.024Z,0.9
2022-12-29T22:25:46.968Z,1.2
2022-12-29T22:38:13.804Z,0.5
2022-12-29T22:40:17.757Z,0.2
2022-12-29T22:42:21.732Z,0.4
2022-12-29T22:52:44.524Z,0.2
2022-12-29T22:58:59.410Z,1.3
2022-12-29T23:01:03.371Z,1.5
2022-12-29T23:03:07.520Z,0.1
2022-12-29T23:05:31.419Z,3
2022-12-29T23:07:35.392Z,1
2022-12-29T23:09:39.607Z,2.3
2022-12-29T23:11:46.285Z,1.4
2022-12-29T23:13:50.227Z,0.6
2022-12-29T23:15:54.275Z,1
2022-12-29T23:17:58.172Z,1.5
2022-12-29T23:20:02.188Z,1.1
2022-12-29T23:22:06.070Z,0.9
2022-12-29T23:24:10.001Z,1.2
2022-12-29T23:26:16.988Z,2.4
2022-12-29T23:28:20.933Z,0.9
2022-12-29T23:30:24.900Z,1
2022-12-29T23:34:32.784Z,1
2022-12-29T23:36:36.747Z,1
2022-12-29T23:38:40.721Z,0.6
2022-12-29T23:40:47.667Z,0.9
2022-12-29T23:42:51.592Z,0.4
2022-12-29T23:44:55.574Z,0.9
2022-12-29T23:46:59.549Z,3
2022-12-29T23:49:03.464Z,0.7
2022-12-29T23:51:07.393Z,1.2
2022-12-29T23:53:11.367Z,0.8
2022-12-29T23:55:18.310Z,0.7
2022-12-29T23:57:22.287Z,1.1
2022-12-29T23:59:26.239Z,1.1
